sensor_id;sensor_type;location;lat;lon;timestamp;P1;durP1;ratioP1;P2;durP2;ratioP2
11504;SDS011;5809;53.262;10.408;2022-12-29T00:00:02;5.47;;;4.00;;
11504;SDS011;5809;53.262;10.408;2022-12-29T00:02:30;5.13;;;4.33;;
11504;SDS011;5809;53.262;10.408;2022-12-29T00:04:57;5.33;;;4.80;;
11504;SDS011;5809;53.262;10.408;2022-12-29T00:07:26;5.87;;;4.30;;
11504;SDS011;5809;53.262;10.408;2022-12-29T00:09:53;7.17;;;5.10;;
11504;SDS011;5809;53.262;10.408;2022-12-29T00:12:20;4.87;;;4.30;;
11504;SDS011;5809;53.262;10.408;2022-12-29T00:14:47;7.03;;;4.80;;
11504;SDS011;5809;53.262;10.408;2022-12-29T00:17:31;5.23;;;4.73;;
11504;SDS011;5809;53.262;10.408;2022-12-29T00:19:58;6.00;;;4.97;;
11504;SDS011;5809;53.262;10.408;2022-12-29T00:22:43;5.60;;;4.13;;
11504;SDS011;5809;53.262;10.408;2022-12-29T00:25:28;6.47;;;4.90;;
11504;SDS011;5809;53.262;10.408;2022-12-29T00:28:13;5.00;;;4.47;;
11504;SDS011;5809;53.262;10.408;2022-12-29T00:30:58;6.07;;;4.30;;
11504;SDS011;5809;53.262;10.408;2022-12-29T00:33:43;5.17;;;4.57;;
11504;SDS011;5809;53.262;10.408;2022-12-29T00:36:27;6.53;;;4.60;;
11504;SDS011;5809;53.262;10.408;2022-12-29T00:38:59;4.80;;;4.40;;
11504;SDS011;5809;53.262;10.408;2022-12-29T00:41:48;6.23;;;4.33;;
11504;SDS011;5809;53.262;10.408;2022-12-29T00:44:33;5.20;;;4.53;;
11504;SDS011;5809;53.262;10.408;2022-12-29T00:47:00;5.97;;;4.00;;
11504;SDS011;5809;53.262;10.408;2022-12-29T00:49:29;4.83;;;3.87;;
11504;SDS011;5809;53.262;10.408;2022-12-29T00:51:56;4.77;;;3.97;;
11504;SDS011;5809;53.262;10.408;2022-12-29T00:54:26;4.43;;;4.00;;
11504;SDS011;5809;53.262;10.408;2022-12-29T00:56:53;4.67;;;4.17;;
11504;SDS011;5809;53.262;10.408;2022-12-29T00:59:20;4.80;;;3.67;;
11504;SDS011;5809;53.262;10.408;2022-12-29T01:01:49;4.03;;;3.60;;
11504;SDS011;5809;53.262;10.408;2022-12-29T01:04:16;4.77;;;4.10;;
11504;SDS011;5809;53.262;10.408;2022-12-29T01:06:43;4.37;;;3.97;;
11504;SDS011;5809;53.262;10.408;2022-12-29T01:09:11;5.23;;;3.90;;
11504;SDS011;5809;53.262;10.408;2022-12-29T01:11:57;5.47;;;3.90;;
11504;SDS011;5809;53.262;10.408;2022-12-29T01:14:24;4.33;;;3.63;;
11504;SDS011;5809;53.262;10.408;2022-12-29T01:16:51;5.30;;;4.30;;
11504;SDS011;5809;53.262;10.408;2022-12-29T01:19:19;4.10;;;3.37;;
11504;SDS011;5809;53.262;10.408;2022-12-29T01:21:47;6.17;;;3.93;;
11504;SDS011;5809;53.262;10.408;2022-12-29T01:24:14;4.77;;;3.97;;
11504;SDS011;5809;53.262;10.408;2022-12-29T01:26:42;6.67;;;4.30;;
11504;SDS011;5809;53.262;10.408;2022-12-29T01:29:10;4.10;;;3.70;;
11504;SDS011;5809;53.262;10.408;2022-12-29T01:31:37;7.47;;;3.80;;
11504;SDS011;5809;53.262;10.408;2022-12-29T01:34:04;3.90;;;3.53;;
11504;SDS011;5809;53.262;10.408;2022-12-29T01:36:31;5.33;;;3.83;;
11504;SDS011;5809;53.262;10.408;2022-12-29T01:38:59;3.63;;;3.00;;
11504;SDS011;5809;53.262;10.408;2022-12-29T01:41:26;4.30;;;3.20;;
11504;SDS011;5809;53.262;10.408;2022-12-29T01:43:54;4.43;;;3.27;;
11504;SDS011;5809;53.262;10.408;2022-12-29T01:46:26;2.87;;;2.60;;
11504;SDS011;5809;53.262;10.408;2022-12-29T01:48:55;2.85;;;2.50;;
11504;SDS011;5809;53.262;10.408;2022-12-29T01:51:24;4.70;;;2.95;;
11504;SDS011;5809;53.262;10.408;2022-12-29T01:53:54;2.72;;;2.47;;
11504;SDS011;5809;53.262;10.408;2022-12-29T01:56:23;3.22;;;2.70;;
11504;SDS011;5809;53.262;10.408;2022-12-29T01:58:53;4.33;;;2.60;;
11504;SDS011;5809;53.262;10.408;2022-12-29T02:01:21;3.25;;;2.40;;
11504;SDS011;5809;53.262;10.408;2022-12-29T02:03:50;2.60;;;2.40;;
11504;SDS011;5809;53.262;10.408;2022-12-29T02:06:18;4.53;;;2.50;;
11504;SDS011;5809;53.262;10.408;2022-12-29T02:08:49;2.70;;;2.10;;
11504;SDS011;5809;53.262;10.408;2022-12-29T02:11:16;3.03;;;2.30;;
11504;SDS011;5809;53.262;10.408;2022-12-29T02:13:44;4.22;;;2.67;;
11504;SDS011;5809;53.262;10.408;2022-12-29T02:16:14;2.63;;;2.30;;
11504;SDS011;5809;53.262;10.408;2022-12-29T02:19:19;2.97;;;2.05;;
11504;SDS011;5809;53.262;10.408;2022-12-29T02:22:13;2.85;;;2.28;;
11504;SDS011;5809;53.262;10.408;2022-12-29T02:30:16;3.47;;;2.40;;
11504;SDS011;5809;53.262;10.408;2022-12-29T02:33:05;3.10;;;2.33;;
11504;SDS011;5809;53.262;10.408;2022-12-29T02:35:41;3.30;;;2.35;;
11504;SDS011;5809;53.262;10.408;2022-12-29T02:38:13;3.25;;;2.25;;
11504;SDS011;5809;53.262;10.408;2022-12-29T02:40:46;3.97;;;2.28;;
11504;SDS011;5809;53.262;10.408;2022-12-29T02:43:23;2.40;;;2.20;;
11504;SDS011;5809;53.262;10.408;2022-12-29T02:45:54;3.77;;;2.00;;
11504;SDS011;5809;53.262;10.408;2022-12-29T02:48:25;3.60;;;2.10;;
11504;SDS011;5809;53.262;10.408;2022-12-29T02:50:56;2.25;;;2.05;;
11504;SDS011;5809;53.262;10.408;2022-12-29T02:53:25;3.00;;;2.13;;
11504;SDS011;5809;53.262;10.408;2022-12-29T02:56:07;1.98;;;1.80;;
11504;SDS011;5809;53.262;10.408;2022-12-29T02:58:34;3.20;;;2.13;;
11504;SDS011;5809;53.262;10.408;2022-12-29T03:01:10;1.90;;;1.70;;
11504;SDS011;5809;53.262;10.408;2022-12-29T03:03:48;2.70;;;1.88;;
11504;SDS011;5809;53.262;10.408;2022-12-29T03:06:35;1.75;;;1.65;;
11504;SDS011;5809;53.262;10.408;2022-12-29T03:09:08;2.10;;;1.57;;
11504;SDS011;5809;53.262;10.408;2022-12-29T03:11:39;1.83;;;1.50;;
11504;SDS011;5809;53.262;10.408;2022-12-29T03:14:31;1.60;;;1.50;;
11504;SDS011;5809;53.262;10.408;2022-12-29T03:17:18;1.83;;;1.40;;
11504;SDS011;5809;53.262;10.408;2022-12-29T03:19:52;1.55;;;1.40;;
11504;SDS011;5809;53.262;10.408;2022-12-29T03:22:26;3.17;;;1.73;;
11504;SDS011;5809;53.262;10.408;2022-12-29T03:24:57;1.50;;;1.40;;
11504;SDS011;5809;53.262;10.408;2022-12-29T03:27:27;2.13;;;1.58;;
11504;SDS011;5809;53.262;10.408;2022-12-29T03:29:58;2.33;;;1.50;;
11504;SDS011;5809;53.262;10.408;2022-12-29T03:32:31;1.85;;;1.40;;
11504;SDS011;5809;53.262;10.408;2022-12-29T03:35:01;3.20;;;1.50;;
11504;SDS011;5809;53.262;10.408;2022-12-29T03:37:32;2.33;;;1.40;;
11504;SDS011;5809;53.262;10.408;2022-12-29T03:40:03;1.50;;;1.40;;
11504;SDS011;5809;53.262;10.408;2022-12-29T03:42:30;2.80;;;1.20;;
11504;SDS011;5809;53.262;10.408;2022-12-29T03:45:00;3.53;;;1.60;;
11504;SDS011;5809;53.262;10.408;2022-12-29T03:47:27;1.40;;;1.30;;
11504;SDS011;5809;53.262;10.408;2022-12-29T03:49:55;3.50;;;1.33;;
11504;SDS011;5809;53.262;10.408;2022-12-29T03:52:23;2.28;;;1.40;;
11504;SDS011;5809;53.262;10.408;2022-12-29T03:54:49;1.10;;;1.02;;
11504;SDS011;5809;53.262;10.408;2022-12-29T03:57:17;1.48;;;1.23;;
11504;SDS011;5809;53.262;10.408;2022-12-29T03:59:43;1.53;;;1.30;;
11504;SDS011;5809;53.262;10.408;2022-12-29T04:02:11;1.35;;;1.20;;
11504;SDS011;5809;53.262;10.408;2022-12-29T04:04:38;3.08;;;1.38;;
11504;SDS011;5809;53.262;10.408;2022-12-29T04:07:06;1.92;;;1.42;;
11504;SDS011;5809;53.262;10.408;2022-12-29T04:09:34;2.13;;;1.27;;
11504;SDS011;5809;53.262;10.408;2022-12-29T04:12:01;1.40;;;1.30;;
11504;SDS011;5809;53.262;10.408;2022-12-29T04:14:28;2.00;;;1.40;;
11504;SDS011;5809;53.262;10.408;2022-12-29T04:16:55;1.55;;;1.38;;
11504;SDS011;5809;53.262;10.408;2022-12-29T04:19:22;1.30;;;1.20;;
11504;SDS011;5809;53.262;10.408;2022-12-29T04:21:49;1.38;;;1.25;;
11504;SDS011;5809;53.262;10.408;2022-12-29T04:24:18;1.90;;;1.40;;
11504;SDS011;5809;53.262;10.408;2022-12-29T04:26:45;1.40;;;1.30;;
11504;SDS011;5809;53.262;10.408;2022-12-29T04:29:12;1.50;;;1.38;;
11504;SDS011;5809;53.262;10.408;2022-12-29T04:31:39;3.78;;;1.65;;
11504;SDS011;5809;53.262;10.408;2022-12-29T04:34:05;2.20;;;1.40;;
11504;SDS011;5809;53.262;10.408;2022-12-29T04:36:33;1.43;;;1.30;;
11504;SDS011;5809;53.262;10.408;2022-12-29T04:39:00;2.20;;;1.47;;
11504;SDS011;5809;53.262;10.408;2022-12-29T04:41:28;2.75;;;1.70;;
11504;SDS011;5809;53.262;10.408;2022-12-29T04:43:55;2.83;;;1.70;;
11504;SDS011;5809;53.262;10.408;2022-12-29T04:46:23;2.60;;;1.60;;
11504;SDS011;5809;53.262;10.408;2022-12-29T04:48:50;1.90;;;1.70;;
11504;SDS011;5809;53.262;10.408;2022-12-29T04:51:17;3.03;;;1.90;;
11504;SDS011;5809;53.262;10.408;2022-12-29T04:53:44;2.63;;;1.80;;
11504;SDS011;5809;53.262;10.408;2022-12-29T04:56:11;1.70;;;1.60;;
11504;SDS011;5809;53.262;10.408;2022-12-29T04:58:40;3.90;;;2.15;;
11504;SDS011;5809;53.262;10.408;2022-12-29T05:01:07;2.13;;;1.52;;
11504;SDS011;5809;53.262;10.408;2022-12-29T05:03:34;2.85;;;1.80;;
11504;SDS011;5809;53.262;10.408;2022-12-29T05:06:01;3.55;;;2.10;;
11504;SDS011;5809;53.262;10.408;2022-12-29T05:08:29;2.22;;;1.90;;
11504;SDS011;5809;53.262;10.408;2022-12-29T05:10:55;3.70;;;1.95;;
11504;SDS011;5809;53.262;10.408;2022-12-29T05:13:23;3.05;;;1.80;;
11504;SDS011;5809;53.262;10.408;2022-12-29T05:15:52;2.13;;;1.92;;
11504;SDS011;5809;53.262;10.408;2022-12-29T05:18:19;2.08;;;1.88;;
11504;SDS011;5809;53.262;10.408;2022-12-29T05:20:46;2.10;;;1.55;;
11504;SDS011;5809;53.262;10.408;2022-12-29T05:23:14;2.10;;;1.40;;
11504;SDS011;5809;53.262;10.408;2022-12-29T05:25:42;2.73;;;1.53;;
11504;SDS011;5809;53.262;10.408;2022-12-29T05:28:10;2.42;;;1.58;;
11504;SDS011;5809;53.262;10.408;2022-12-29T05:30:37;1.75;;;1.60;;
11504;SDS011;5809;53.262;10.408;2022-12-29T05:33:05;2.47;;;1.40;;
11504;SDS011;5809;53.262;10.408;2022-12-29T05:35:32;2.70;;;1.80;;
11504;SDS011;5809;53.262;10.408;2022-12-29T05:37:59;2.28;;;1.63;;
11504;SDS011;5809;53.262;10.408;2022-12-29T05:40:26;2.22;;;1.73;;
11504;SDS011;5809;53.262;10.408;2022-12-29T05:42:54;1.85;;;1.73;;
11504;SDS011;5809;53.262;10.408;2022-12-29T05:45:20;2.03;;;1.70;;
11504;SDS011;5809;53.262;10.408;2022-12-29T05:47:47;1.63;;;1.50;;
11504;SDS011;5809;53.262;10.408;2022-12-29T05:50:16;3.75;;;2.00;;
11504;SDS011;5809;53.262;10.408;2022-12-29T05:52:43;2.10;;;1.60;;
11504;SDS011;5809;53.262;10.408;2022-12-29T05:55:11;1.48;;;1.38;;
11504;SDS011;5809;53.262;10.408;2022-12-29T05:57:38;1.90;;;1.55;;
11504;SDS011;5809;53.262;10.408;2022-12-29T06:00:05;1.80;;;1.33;;
11504;SDS011;5809;53.262;10.408;2022-12-29T06:02:33;2.55;;;1.50;;
11504;SDS011;5809;53.262;10.408;2022-12-29T06:05:00;1.40;;;1.30;;
11504;SDS011;5809;53.262;10.408;2022-12-29T06:07:29;1.48;;;1.35;;
11504;SDS011;5809;53.262;10.408;2022-12-29T06:09:56;1.85;;;1.35;;
11504;SDS011;5809;53.262;10.408;2022-12-29T06:12:23;2.22;;;1.60;;
11504;SDS011;5809;53.262;10.408;2022-12-29T06:14:50;1.95;;;1.55;;
11504;SDS011;5809;53.262;10.408;2022-12-29T06:17:17;1.88;;;1.38;;
11504;SDS011;5809;53.262;10.408;2022-12-29T06:19:44;1.60;;;1.50;;
11504;SDS011;5809;53.262;10.408;2022-12-29T06:22:11;2.00;;;1.40;;
11504;SDS011;5809;53.262;10.408;2022-12-29T06:24:39;1.73;;;1.30;;
11504;SDS011;5809;53.262;10.408;2022-12-29T06:27:07;2.28;;;1.60;;
11504;SDS011;5809;53.262;10.408;2022-12-29T06:29:34;3.20;;;1.50;;
11504;SDS011;5809;53.262;10.408;2022-12-29T06:32:02;1.80;;;1.10;;
11504;SDS011;5809;53.262;10.408;2022-12-29T06:34:29;2.70;;;1.40;;
11504;SDS011;5809;53.262;10.408;2022-12-29T06:36:56;1.30;;;1.20;;
11504;SDS011;5809;53.262;10.408;2022-12-29T06:39:23;1.77;;;1.42;;
11504;SDS011;5809;53.262;10.408;2022-12-29T06:41:52;3.90;;;1.52;;
11504;SDS011;5809;53.262;10.408;2022-12-29T06:44:20;1.67;;;1.10;;
11504;SDS011;5809;53.262;10.408;2022-12-29T06:46:47;1.30;;;1.13;;
11504;SDS011;5809;53.262;10.408;2022-12-29T06:49:15;1.77;;;1.10;;
11504;SDS011;5809;53.262;10.408;2022-12-29T06:51:42;2.15;;;1.10;;
11504;SDS011;5809;53.262;10.408;2022-12-29T06:54:09;1.38;;;1.27;;
11504;SDS011;5809;53.262;10.408;2022-12-29T06:56:36;0.88;;;0.82;;
11504;SDS011;5809;53.262;10.408;2022-12-29T06:59:05;1.92;;;1.20;;
11504;SDS011;5809;53.262;10.408;2022-12-29T07:01:32;1.73;;;1.00;;
11504;SDS011;5809;53.262;10.408;2022-12-29T07:04:00;2.88;;;1.40;;
11504;SDS011;5809;53.262;10.408;2022-12-29T07:06:27;1.73;;;1.08;;
11504;SDS011;5809;53.262;10.408;2022-12-29T07:08:55;1.60;;;0.80;;
11504;SDS011;5809;53.262;10.408;2022-12-29T07:11:22;2.80;;;1.25;;
11504;SDS011;5809;53.262;10.408;2022-12-29T07:13:49;1.00;;;0.90;;
11504;SDS011;5809;53.262;10.408;2022-12-29T07:16:18;1.50;;;0.90;;
11504;SDS011;5809;53.262;10.408;2022-12-29T07:18:45;2.00;;;1.00;;
11504;SDS011;5809;53.262;10.408;2022-12-29T07:21:12;1.63;;;0.80;;
11504;SDS011;5809;53.262;10.408;2022-12-29T07:23:39;3.05;;;1.10;;
11504;SDS011;5809;53.262;10.408;2022-12-29T07:26:06;1.02;;;0.93;;
11504;SDS011;5809;53.262;10.408;2022-12-29T07:28:35;1.48;;;1.10;;
11504;SDS011;5809;53.262;10.408;2022-12-29T07:31:03;0.80;;;0.80;;
11504;SDS011;5809;53.262;10.408;2022-12-29T07:33:31;1.17;;;0.90;;
11504;SDS011;5809;53.262;10.408;2022-12-29T07:35:59;1.77;;;1.00;;
11504;SDS011;5809;53.262;10.408;2022-12-29T07:38:26;1.02;;;0.90;;
11504;SDS011;5809;53.262;10.408;2022-12-29T07:40:56;1.25;;;1.10;;
11504;SDS011;5809;53.262;10.408;2022-12-29T07:43:24;1.55;;;1.00;;
11504;SDS011;5809;53.262;10.408;2022-12-29T07:45:51;1.95;;;0.95;;
11504;SDS011;5809;53.262;10.408;2022-12-29T07:48:18;1.13;;;1.00;;
11504;SDS011;5809;53.262;10.408;2022-12-29T07:50:46;0.80;;;0.80;;
11504;SDS011;5809;53.262;10.408;2022-12-29T07:53:13;1.42;;;0.70;;
11504;SDS011;5809;53.262;10.408;2022-12-29T07:55:41;2.83;;;0.80;;
11504;SDS011;5809;53.262;10.408;2022-12-29T07:58:08;1.20;;;0.80;;
11504;SDS011;5809;53.262;10.408;2022-12-29T08:00:35;1.83;;;0.82;;
11504;SDS011;5809;53.262;10.408;2022-12-29T08:03:03;1.30;;;0.70;;
11504;SDS011;5809;53.262;10.408;2022-12-29T08:05:30;1.98;;;0.98;;
11504;SDS011;5809;53.262;10.408;2022-12-29T08:07:58;2.40;;;0.93;;
11504;SDS011;5809;53.262;10.408;2022-12-29T08:10:25;2.00;;;0.82;;
11504;SDS011;5809;53.262;10.408;2022-12-29T08:12:52;2.72;;;0.93;;
11504;SDS011;5809;53.262;10.408;2022-12-29T08:15:19;2.67;;;1.20;;
11504;SDS011;5809;53.262;10.408;2022-12-29T08:17:46;2.42;;;1.20;;
11504;SDS011;5809;53.262;10.408;2022-12-29T08:20:13;1.85;;;0.70;;
11504;SDS011;5809;53.262;10.408;2022-12-29T08:22:40;2.40;;;1.50;;
11504;SDS011;5809;53.262;10.408;2022-12-29T08:25:09;1.88;;;0.95;;
11504;SDS011;5809;53.262;10.408;2022-12-29T08:27:36;3.50;;;1.73;;
11504;SDS011;5809;53.262;10.408;2022-12-29T08:30:03;2.03;;;0.90;;
11504;SDS011;5809;53.262;10.408;2022-12-29T08:32:31;1.90;;;1.10;;
11504;SDS011;5809;53.262;10.408;2022-12-29T08:34:58;0.60;;;0.60;;
11504;SDS011;5809;53.262;10.408;2022-12-29T08:37:25;1.17;;;0.90;;
11504;SDS011;5809;53.262;10.408;2022-12-29T08:39:52;1.08;;;0.90;;
11504;SDS011;5809;53.262;10.408;2022-12-29T08:42:21;3.17;;;0.70;;
11504;SDS011;5809;53.262;10.408;2022-12-29T08:44:47;1.05;;;0.50;;
11504;SDS011;5809;53.262;10.408;2022-12-29T08:47:14;0.73;;;0.70;;
11504;SDS011;5809;53.262;10.408;2022-12-29T08:49:41;1.58;;;1.15;;
11504;SDS011;5809;53.262;10.408;2022-12-29T08:52:08;3.72;;;0.70;;
11504;SDS011;5809;53.262;10.408;2022-12-29T08:54:35;1.13;;;0.57;;
11504;SDS011;5809;53.262;10.408;2022-12-29T08:57:03;1.35;;;0.65;;
11504;SDS011;5809;53.262;10.408;2022-12-29T08:59:31;0.85;;;0.50;;
11504;SDS011;5809;53.262;10.408;2022-12-29T09:01:58;1.77;;;0.82;;
11504;SDS011;5809;53.262;10.408;2022-12-29T09:04:26;2.17;;;0.40;;
11504;SDS011;5809;53.262;10.408;2022-12-29T09:06:53;1.10;;;0.55;;
11504;SDS011;5809;53.262;10.408;2022-12-29T09:09:20;1.67;;;0.50;;
11504;SDS011;5809;53.262;10.408;2022-12-29T09:11:47;0.98;;;0.52;;
11504;SDS011;5809;53.262;10.408;2022-12-29T09:14:14;1.38;;;0.40;;
11504;SDS011;5809;53.262;10.408;2022-12-29T09:16:42;0.88;;;0.50;;
11504;SDS011;5809;53.262;10.408;2022-12-29T09:19:26;1.95;;;0.38;;
11504;SDS011;5809;53.262;10.408;2022-12-29T09:21:53;2.35;;;0.65;;
11504;SDS011;5809;53.262;10.408;2022-12-29T09:24:20;2.35;;;0.70;;
11504;SDS011;5809;53.262;10.408;2022-12-29T09:26:47;1.13;;;0.60;;
11504;SDS011;5809;53.262;10.408;2022-12-29T09:29:14;1.65;;;0.40;;
11504;SDS011;5809;53.262;10.408;2022-12-29T09:31:43;1.60;;;0.65;;
11504;SDS011;5809;53.262;10.408;2022-12-29T09:34:10;1.35;;;0.60;;
11504;SDS011;5809;53.262;10.408;2022-12-29T09:36:37;1.65;;;0.70;;
11504;SDS011;5809;53.262;10.408;2022-12-29T09:39:04;1.52;;;0.60;;
11504;SDS011;5809;53.262;10.408;2022-12-29T09:41:32;3.78;;;0.73;;
11504;SDS011;5809;53.262;10.408;2022-12-29T09:44:06;1.60;;;0.60;;
11504;SDS011;5809;53.262;10.408;2022-12-29T09:46:39;1.58;;;0.68;;
11504;SDS011;5809;53.262;10.408;2022-12-29T09:49:15;1.02;;;0.70;;
11504;SDS011;5809;53.262;10.408;2022-12-29T09:51:48;3.20;;;0.90;;
11504;SDS011;5809;53.262;10.408;2022-12-29T09:57:15;3.08;;;0.98;;
11504;SDS011;5809;53.262;10.408;2022-12-29T09:59:47;1.52;;;0.60;;
11504;SDS011;5809;53.262;10.408;2022-12-29T10:02:21;2.85;;;0.95;;
11504;SDS011;5809;53.262;10.408;2022-12-29T10:04:56;3.05;;;1.10;;
11504;SDS011;5809;53.262;10.408;2022-12-29T10:07:26;4.00;;;1.10;;
11504;SDS011;5809;53.262;10.408;2022-12-29T10:10:02;2.63;;;0.82;;
11504;SDS011;5809;53.262;10.408;2022-12-29T10:12:40;2.35;;;1.05;;
11504;SDS011;5809;53.262;10.408;2022-12-29T10:15:18;2.05;;;1.05;;
11504;SDS011;5809;53.262;10.408;2022-12-29T10:18:01;3.13;;;0.90;;
11504;SDS011;5809;53.262;10.408;2022-12-29T10:20:44;18.85;;;12.38;;
11504;SDS011;5809;53.262;10.408;2022-12-29T10:23:20;6.10;;;2.08;;
11504;SDS011;5809;53.262;10.408;2022-12-29T10:25:52;3.08;;;1.00;;
11504;SDS011;5809;53.262;10.408;2022-12-29T10:28:22;4.07;;;1.48;;
11504;SDS011;5809;53.262;10.408;2022-12-29T10:30:50;3.40;;;1.10;;
11504;SDS011;5809;53.262;10.408;2022-12-29T10:33:19;7.18;;;1.10;;
11504;SDS011;5809;53.262;10.408;2022-12-29T10:35:51;4.53;;;1.38;;
11504;SDS011;5809;53.262;10.408;2022-12-29T10:38:21;2.63;;;1.00;;
11504;SDS011;5809;53.262;10.408;2022-12-29T10:40:53;2.85;;;1.00;;
11504;SDS011;5809;53.262;10.408;2022-12-29T10:43:25;6.18;;;1.23;;
11504;SDS011;5809;53.262;10.408;2022-12-29T10:45:54;3.15;;;1.10;;
11504;SDS011;5809;53.262;10.408;2022-12-29T10:48:24;1.75;;;0.80;;
11504;SDS011;5809;53.262;10.408;2022-12-29T10:50:56;7.70;;;1.17;;
11504;SDS011;5809;53.262;10.408;2022-12-29T10:53:25;6.32;;;1.45;;
11504;SDS011;5809;53.262;10.408;2022-12-29T10:55:58;5.32;;;1.13;;
11504;SDS011;5809;53.262;10.408;2022-12-29T10:58:28;2.85;;;1.10;;
11504;SDS011;5809;53.262;10.408;2022-12-29T11:00:57;5.07;;;1.08;;
11504;SDS011;5809;53.262;10.408;2022-12-29T11:03:35;4.28;;;1.10;;
11504;SDS011;5809;53.262;10.408;2022-12-29T11:06:12;3.25;;;1.08;;
11504;SDS011;5809;53.262;10.408;2022-12-29T11:08:46;4.20;;;1.20;;
11504;SDS011;5809;53.262;10.408;2022-12-29T11:11:24;5.40;;;1.23;;
11504;SDS011;5809;53.262;10.408;2022-12-29T11:13:56;3.63;;;1.08;;
11504;SDS011;5809;53.262;10.408;2022-12-29T11:16:27;3.03;;;1.20;;
11504;SDS011;5809;53.262;10.408;2022-12-29T11:18:57;4.82;;;1.50;;
11504;SDS011;5809;53.262;10.408;2022-12-29T11:21:27;3.15;;;1.10;;
11504;SDS011;5809;53.262;10.408;2022-12-29T11:23:58;7.15;;;1.30;;
11504;SDS011;5809;53.262;10.408;2022-12-29T11:26:26;5.22;;;1.50;;
11504;SDS011;5809;53.262;10.408;2022-12-29T11:31:48;5.28;;;1.48;;
11504;SDS011;5809;53.262;10.408;2022-12-29T11:34:18;3.08;;;1.10;;
11504;SDS011;5809;53.262;10.408;2022-12-29T11:36:47;4.05;;;1.20;;
11504;SDS011;5809;53.262;10.408;2022-12-29T11:39:23;5.53;;;1.63;;
11504;SDS011;5809;53.262;10.408;2022-12-29T11:41:55;3.83;;;1.10;;
11504;SDS011;5809;53.262;10.408;2022-12-29T11:44:22;6.35;;;1.42;;
11504;SDS011;5809;53.262;10.408;2022-12-29T11:46:50;6.75;;;1.45;;
11504;SDS011;5809;53.262;10.408;2022-12-29T11:49:19;4.57;;;1.23;;
11504;SDS011;5809;53.262;10.408;2022-12-29T11:51:49;4.03;;;1.38;;
11504;SDS011;5809;53.262;10.408;2022-12-29T11:54:21;3.92;;;0.93;;
11504;SDS011;5809;53.262;10.408;2022-12-29T11:56:51;3.42;;;1.40;;
11504;SDS011;5809;53.262;10.408;2022-12-29T12:05:17;3.42;;;1.15;;
11504;SDS011;5809;53.262;10.408;2022-12-29T12:07:52;7.15;;;1.48;;
11504;SDS011;5809;53.262;10.408;2022-12-29T12:10:23;4.38;;;1.52;;
11504;SDS011;5809;53.262;10.408;2022-12-29T12:12:55;7.85;;;2.13;;
11504;SDS011;5809;53.262;10.408;2022-12-29T12:15:30;5.05;;;1.42;;
11504;SDS011;5809;53.262;10.408;2022-12-29T12:18:05;3.95;;;1.38;;
11504;SDS011;5809;53.262;10.408;2022-12-29T12:20:42;4.63;;;1.17;;
11504;SDS011;5809;53.262;10.408;2022-12-29T12:23:25;5.55;;;1.75;;
11504;SDS011;5809;53.262;10.408;2022-12-29T12:26:04;5.88;;;1.80;;
11504;SDS011;5809;53.262;10.408;2022-12-29T12:28:40;4.32;;;1.88;;
11504;SDS011;5809;53.262;10.408;2022-12-29T12:31:15;5.60;;;1.30;;
11504;SDS011;5809;53.262;10.408;2022-12-29T12:33:50;4.32;;;1.25;;
11504;SDS011;5809;53.262;10.408;2022-12-29T12:36:24;5.78;;;1.50;;
11504;SDS011;5809;53.262;10.408;2022-12-29T12:39:06;5.63;;;1.60;;
11504;SDS011;5809;53.262;10.408;2022-12-29T12:41:41;6.38;;;1.52;;
11504;SDS011;5809;53.262;10.408;2022-12-29T12:44:17;5.85;;;1.52;;
11504;SDS011;5809;53.262;10.408;2022-12-29T12:47:00;4.68;;;1.35;;
11504;SDS011;5809;53.262;10.408;2022-12-29T12:50:02;3.78;;;1.27;;
11504;SDS011;5809;53.262;10.408;2022-12-29T12:52:49;6.22;;;1.20;;
11504;SDS011;5809;53.262;10.408;2022-12-29T12:55:41;5.38;;;1.30;;
11504;SDS011;5809;53.262;10.408;2022-12-29T12:58:24;4.10;;;1.30;;
11504;SDS011;5809;53.262;10.408;2022-12-29T13:01:05;6.40;;;1.65;;
11504;SDS011;5809;53.262;10.408;2022-12-29T13:03:45;6.57;;;1.48;;
11504;SDS011;5809;53.262;10.408;2022-12-29T13:06:26;5.75;;;1.42;;
11504;SDS011;5809;53.262;10.408;2022-12-29T13:09:06;5.65;;;1.73;;
11504;SDS011;5809;53.262;10.408;2022-12-29T13:12:05;3.88;;;1.10;;
11504;SDS011;5809;53.262;10.408;2022-12-29T13:14:41;3.92;;;1.30;;
11504;SDS011;5809;53.262;10.408;2022-12-29T13:17:19;5.25;;;1.45;;
11504;SDS011;5809;53.262;10.408;2022-12-29T13:19:53;2.65;;;0.95;;
11504;SDS011;5809;53.262;10.408;2022-12-29T13:22:28;5.13;;;1.30;;
11504;SDS011;5809;53.262;10.408;2022-12-29T13:25:08;5.90;;;1.83;;
11504;SDS011;5809;53.262;10.408;2022-12-29T13:27:52;5.78;;;1.40;;
11504;SDS011;5809;53.262;10.408;2022-12-29T13:30:28;5.65;;;1.17;;
11504;SDS011;5809;53.262;10.408;2022-12-29T13:33:02;3.35;;;1.35;;
11504;SDS011;5809;53.262;10.408;2022-12-29T13:35:43;4.88;;;1.30;;
11504;SDS011;5809;53.262;10.408;2022-12-29T13:38:22;5.90;;;1.52;;
11504;SDS011;5809;53.262;10.408;2022-12-29T13:40:53;4.38;;;1.20;;
11504;SDS011;5809;53.262;10.408;2022-12-29T13:43:24;5.43;;;1.27;;
11504;SDS011;5809;53.262;10.408;2022-12-29T13:45:55;4.47;;;1.40;;
11504;SDS011;5809;53.262;10.408;2022-12-29T13:48:28;6.55;;;1.77;;
11504;SDS011;5809;53.262;10.408;2022-12-29T13:51:02;4.40;;;1.80;;
11504;SDS011;5809;53.262;10.408;2022-12-29T13:53:33;5.20;;;1.65;;
11504;SDS011;5809;53.262;10.408;2022-12-29T13:56:10;4.13;;;1.33;;
11504;SDS011;5809;53.262;10.408;2022-12-29T13:58:47;6.97;;;1.63;;
11504;SDS011;5809;53.262;10.408;2022-12-29T14:01:18;4.68;;;2.05;;
11504;SDS011;5809;53.262;10.408;2022-12-29T14:03:49;6.88;;;1.90;;
11504;SDS011;5809;53.262;10.408;2022-12-29T14:06:22;6.60;;;1.30;;
11504;SDS011;5809;53.262;10.408;2022-12-29T14:08:52;3.75;;;1.50;;
11504;SDS011;5809;53.262;10.408;2022-12-29T14:11:21;4.65;;;1.58;;
11504;SDS011;5809;53.262;10.408;2022-12-29T14:13:52;3.97;;;1.27;;
11504;SDS011;5809;53.262;10.408;2022-12-29T14:16:31;3.17;;;1.23;;
11504;SDS011;5809;53.262;10.408;2022-12-29T14:19:04;4.05;;;1.33;;
11504;SDS011;5809;53.262;10.408;2022-12-29T14:21:37;4.78;;;1.02;;
11504;SDS011;5809;53.262;10.408;2022-12-29T14:33:15;3.15;;;1.00;;
11504;SDS011;5809;53.262;10.408;2022-12-29T14:35:43;2.30;;;0.80;;
11504;SDS011;5809;53.262;10.408;2022-12-29T14:38:15;3.55;;;1.15;;
11504;SDS011;5809;53.262;10.408;2022-12-29T14:40:47;2.47;;;0.98;;
11504;SDS011;5809;53.262;10.408;2022-12-29T14:43:18;1.58;;;0.85;;
11504;SDS011;5809;53.262;10.408;2022-12-29T14:45:55;1.98;;;1.00;;
11504;SDS011;5809;53.262;10.408;2022-12-29T14:48:30;4.18;;;1.10;;
11504;SDS011;5809;53.262;10.408;2022-12-29T14:53:56;4.30;;;1.23;;
11504;SDS011;5809;53.262;10.408;2022-12-29T14:56:24;5.75;;;1.08;;
11504;SDS011;5809;53.262;10.408;2022-12-29T14:58:54;2.80;;;1.00;;
11504;SDS011;5809;53.262;10.408;2022-12-29T15:01:26;4.28;;;1.25;;
11504;SDS011;5809;53.262;10.408;2022-12-29T15:04:04;3.60;;;0.93;;
11504;SDS011;5809;53.262;10.408;2022-12-29T15:06:41;3.08;;;0.80;;
11504;SDS011;5809;53.262;10.408;2022-12-29T15:09:12;3.38;;;0.90;;
11504;SDS011;5809;53.262;10.408;2022-12-29T15:11:51;2.22;;;0.95;;
11504;SDS011;5809;53.262;10.408;2022-12-29T15:14:27;1.85;;;0.90;;
11504;SDS011;5809;53.262;10.408;2022-12-29T15:16:58;1.63;;;0.80;;
11504;SDS011;5809;53.262;10.408;2022-12-29T15:19:26;1.88;;;0.90;;
11504;SDS011;5809;53.262;10.408;2022-12-29T15:21:53;2.63;;;0.98;;
11504;SDS011;5809;53.262;10.408;2022-12-29T15:24:21;2.28;;;0.93;;
11504;SDS011;5809;53.262;10.408;2022-12-29T15:26:49;3.83;;;1.17;;
11504;SDS011;5809;53.262;10.408;2022-12-29T15:29:31;4.05;;;1.48;;
11504;SDS011;5809;53.262;10.408;2022-12-29T15:32:09;5.18;;;1.40;;
11504;SDS011;5809;53.262;10.408;2022-12-29T15:34:44;6.63;;;1.50;;
11504;SDS011;5809;53.262;10.408;2022-12-29T15:37:19;9.35;;;1.77;;
11504;SDS011;5809;53.262;10.408;2022-12-29T15:39:48;6.55;;;1.75;;